Terminal Aerodrome Forecast
Issued by NWS

Home | Current Version | Previous Version | Text Only | Print | Product List | Glossary On
Versions: 1 2 3 4 5 6 7 8 9 10 11 12 13 14 15 16 17 18 19 20 21 22 23 24 25
400
FTUS46 KSEW 040520
TAFSEA
TAF
KSEA 040520Z 0406/0512 03009KT P6SM SCT045 BKN110 OVC200
     FM040800 36007KT P6SM VCSH BKN045 OVC120
     FM041200 VRB04KT P6SM SCT015 OVC040
      TEMPO 0412/0416 -SHRA BKN015 OVC040
     FM041900 33007KT P6SM SCT025 BKN050
     FM050000 35006KT P6SM SCT040 BKN080 OVC200=

USA.gov is the U.S. government's official web portal to all federal, state and local government web resources and services.